Aeroporto :
LOGIN :

Iscrizione | Disclaimer

   EN    FR    IT 

 










Sommario :    VFR   VFR Marginale   IFR   IFR Intensivo   IFR Molto Intensivo
Visibilità : 
Base nubi : 
>= 8 km
>= 3000ft
5 / 8 km
1000 / 3000 ft
1500m / 5 km
500 / 1000 ft
800 / 1500m
200 / 500 ft
< 800m
< 200 ft
Simboli :   Temporali  Nebbia  Neve Forte  Precipitazioni Forti  Vento > 20 kt
SIGMETs :   Varie  Temporali  Ghiacco  Turbolenza  Onda orograficha  Ceneri Vulcaniche






- Altitudine del aeroporto : -13 ft
- Codice IATA : LEY


EHLE - Lelystad

ULTIMO METAR :
  • 261725Z AUTO 34007KT 290V020 9999 NSC 21/10 Q1034 NOSIG

METARs OBSOLETI :
  • 261655Z AUTO 31007KT 280V360 9999 NSC 22/11 Q1034 NOSIG
  • 261625Z AUTO 31007KT 270V340 9999 NSC 22/11 Q1034 NOSIG
  • 261555Z AUTO 31007KT 270V020 9999 NSC 22/10 Q1034 NOSIG
  • 261525Z AUTO 30006KT 250V340 9999 NSC 22/10 Q1034 NOSIG
  • 261455Z AUTO VRB05KT 9999 NSC 23/10 Q1034 NOSIG

TAF TAF EHLE
Valido dal 26 a 12 ore il 27 a 18 ore UTC


261119Z 2612/2718 VRB03KT 9999 FEW040
PROB30 2701/2706 4000 BR MIFG
BECMG 2709/2712 34012KT
BECMG 2715/2718 03014KT



MetMap, La meteo Aeronautica in un colpo d'occhio ! - Copyright ORBIFLY Dicembre 2007 - Disclaimer

ORBIFLY MET'MAP TEAM :

Programmazione e sviluppo : Alexandra Zaïnal
Concezione : Baudouin d'Aumeries
Aiuto per la programmazione : Marc-Olivier Méhu
Supporto tecnico e logistico : Manuel Goepfert
Aiuto per la traduzione : Arnaldo La Scala

Contatto : metmap@orbifly.com




FONTI E CREDITI :

   NOAA